sensor_id;sensor_type;location;lat;lon;timestamp;temperature;humidity
7254;DHT22;4060;49.186;9.226;2022-07-12T00:02:18;25.90;42.20
7254;DHT22;4060;49.186;9.226;2022-07-12T00:04:47;25.90;42.20
7254;DHT22;4060;49.186;9.226;2022-07-12T00:07:16;25.90;42.20
7254;DHT22;4060;49.186;9.226;2022-07-12T00:09:45;25.90;42.20
7254;DHT22;4060;49.186;9.226;2022-07-12T00:12:15;25.90;42.30
7254;DHT22;4060;49.186;9.226;2022-07-12T00:14:45;25.90;42.30
7254;DHT22;4060;49.186;9.226;2022-07-12T00:17:17;25.90;42.40
7254;DHT22;4060;49.186;9.226;2022-07-12T00:19:46;25.80;42.40
7254;DHT22;4060;49.186;9.226;2022-07-12T00:22:16;25.80;42.50
7254;DHT22;4060;49.186;9.226;2022-07-12T00:24:45;25.80;42.40
7254;DHT22;4060;49.186;9.226;2022-07-12T00:27:17;25.80;42.50
7254;DHT22;4060;49.186;9.226;2022-07-12T00:29:47;25.80;42.60
7254;DHT22;4060;49.186;9.226;2022-07-12T00:32:18;25.80;42.60
7254;DHT22;4060;49.186;9.226;2022-07-12T00:34:47;25.80;42.60
7254;DHT22;4060;49.186;9.226;2022-07-12T00:37:17;25.70;42.60
7254;DHT22;4060;49.186;9.226;2022-07-12T00:39:47;25.70;42.60
7254;DHT22;4060;49.186;9.226;2022-07-12T00:42:16;25.70;42.60
7254;DHT22;4060;49.186;9.226;2022-07-12T00:44:46;25.70;42.60
7254;DHT22;4060;49.186;9.226;2022-07-12T00:47:32;25.70;42.70
7254;DHT22;4060;49.186;9.226;2022-07-12T00:50:06;25.70;42.70
7254;DHT22;4060;49.186;9.226;2022-07-12T00:52:36;25.60;42.60
7254;DHT22;4060;49.186;9.226;2022-07-12T00:55:07;25.60;42.70
7254;DHT22;4060;49.186;9.226;2022-07-12T00:57:37;25.60;42.70
7254;DHT22;4060;49.186;9.226;2022-07-12T01:00:08;25.60;42.70
7254;DHT22;4060;49.186;9.226;2022-07-12T01:02:40;25.60;42.80
7254;DHT22;4060;49.186;9.226;2022-07-12T01:05:10;25.60;42.80
7254;DHT22;4060;49.186;9.226;2022-07-12T01:07:39;25.60;42.80
7254;DHT22;4060;49.186;9.226;2022-07-12T01:10:10;25.50;42.80
7254;DHT22;4060;49.186;9.226;2022-07-12T01:12:39;25.50;42.80
7254;DHT22;4060;49.186;9.226;2022-07-12T01:15:09;25.50;42.90
7254;DHT22;4060;49.186;9.226;2022-07-12T01:17:41;25.50;42.90
7254;DHT22;4060;49.186;9.226;2022-07-12T01:20:13;25.50;42.90
7254;DHT22;4060;49.186;9.226;2022-07-12T01:22:47;25.50;43.00
7254;DHT22;4060;49.186;9.226;2022-07-12T01:25:18;25.40;43.00
7254;DHT22;4060;49.186;9.226;2022-07-12T01:27:48;25.50;43.10
7254;DHT22;4060;49.186;9.226;2022-07-12T01:30:18;25.40;43.10
7254;DHT22;4060;49.186;9.226;2022-07-12T01:32:48;25.40;43.10
7254;DHT22;4060;49.186;9.226;2022-07-12T01:35:18;25.40;43.10
7254;DHT22;4060;49.186;9.226;2022-07-12T01:37:51;25.40;43.10
7254;DHT22;4060;49.186;9.226;2022-07-12T01:40:20;25.40;43.10
7254;DHT22;4060;49.186;9.226;2022-07-12T01:42:49;25.40;43.10
7254;DHT22;4060;49.186;9.226;2022-07-12T01:45:20;25.40;43.20
7254;DHT22;4060;49.186;9.226;2022-07-12T01:47:49;25.30;43.10
7254;DHT22;4060;49.186;9.226;2022-07-12T01:50:18;25.30;43.10
7254;DHT22;4060;49.186;9.226;2022-07-12T01:52:49;25.30;43.20
7254;DHT22;4060;49.186;9.226;2022-07-12T01:55:19;25.30;43.20
7254;DHT22;4060;49.186;9.226;2022-07-12T01:57:48;25.30;43.20
7254;DHT22;4060;49.186;9.226;2022-07-12T02:00:18;25.30;43.20
7254;DHT22;4060;49.186;9.226;2022-07-12T02:02:48;25.30;43.30
7254;DHT22;4060;49.186;9.226;2022-07-12T02:05:17;25.20;43.30
7254;DHT22;4060;49.186;9.226;2022-07-12T02:07:49;25.30;43.30
7254;DHT22;4060;49.186;9.226;2022-07-12T02:10:19;25.20;43.30
7254;DHT22;4060;49.186;9.226;2022-07-12T02:12:48;25.20;43.30
7254;DHT22;4060;49.186;9.226;2022-07-12T02:15:17;25.20;43.30
7254;DHT22;4060;49.186;9.226;2022-07-12T02:17:48;25.20;43.40
7254;DHT22;4060;49.186;9.226;2022-07-12T02:20:17;25.20;43.40
7254;DHT22;4060;49.186;9.226;2022-07-12T02:22:47;25.10;43.40
7254;DHT22;4060;49.186;9.226;2022-07-12T02:25:18;25.10;43.40
7254;DHT22;4060;49.186;9.226;2022-07-12T02:27:48;25.10;43.50
7254;DHT22;4060;49.186;9.226;2022-07-12T02:30:18;25.10;43.50
7254;DHT22;4060;49.186;9.226;2022-07-12T02:32:47;25.10;43.50
7254;DHT22;4060;49.186;9.226;2022-07-12T02:35:17;25.10;43.50
7254;DHT22;4060;49.186;9.226;2022-07-12T02:37:47;25.10;43.50
7254;DHT22;4060;49.186;9.226;2022-07-12T02:40:19;25.00;43.50
7254;DHT22;4060;49.186;9.226;2022-07-12T02:43:05;25.00;43.60
7254;DHT22;4060;49.186;9.226;2022-07-12T02:45:34;25.00;43.60
7254;DHT22;4060;49.186;9.226;2022-07-12T02:48:04;25.00;43.60
7254;DHT22;4060;49.186;9.226;2022-07-12T02:50:34;24.90;43.60
7254;DHT22;4060;49.186;9.226;2022-07-12T02:53:04;24.90;43.70
7254;DHT22;4060;49.186;9.226;2022-07-12T02:55:35;24.90;43.70
7254;DHT22;4060;49.186;9.226;2022-07-12T02:58:05;24.90;43.70
7254;DHT22;4060;49.186;9.226;2022-07-12T03:00:35;24.90;43.70
7254;DHT22;4060;49.186;9.226;2022-07-12T03:03:04;24.90;43.70
7254;DHT22;4060;49.186;9.226;2022-07-12T03:05:34;24.90;43.80
7254;DHT22;4060;49.186;9.226;2022-07-12T03:08:04;24.80;43.70
7254;DHT22;4060;49.186;9.226;2022-07-12T03:10:36;24.80;43.80
7254;DHT22;4060;49.186;9.226;2022-07-12T03:13:06;24.80;43.80
7254;DHT22;4060;49.186;9.226;2022-07-12T03:15:36;24.80;43.80
7254;DHT22;4060;49.186;9.226;2022-07-12T03:18:06;24.80;43.80
7254;DHT22;4060;49.186;9.226;2022-07-12T03:20:36;24.80;43.80
7254;DHT22;4060;49.186;9.226;2022-07-12T03:23:06;24.80;43.90
7254;DHT22;4060;49.186;9.226;2022-07-12T03:25:37;24.70;43.90
7254;DHT22;4060;49.186;9.226;2022-07-12T03:28:06;24.70;43.90
7254;DHT22;4060;49.186;9.226;2022-07-12T03:30:35;24.70;43.90
7254;DHT22;4060;49.186;9.226;2022-07-12T03:33:05;24.70;43.90
7254;DHT22;4060;49.186;9.226;2022-07-12T03:35:36;24.70;44.00
7254;DHT22;4060;49.186;9.226;2022-07-12T03:38:05;24.60;44.00
7254;DHT22;4060;49.186;9.226;2022-07-12T03:40:36;24.60;43.90
7254;DHT22;4060;49.186;9.226;2022-07-12T03:43:04;24.60;44.00
7254;DHT22;4060;49.186;9.226;2022-07-12T03:45:33;24.60;44.00
7254;DHT22;4060;49.186;9.226;2022-07-12T03:48:03;24.60;44.00
7254;DHT22;4060;49.186;9.226;2022-07-12T03:50:33;24.50;44.00
7254;DHT22;4060;49.186;9.226;2022-07-12T03:53:08;24.50;44.00
7254;DHT22;4060;49.186;9.226;2022-07-12T03:55:39;24.50;44.00
7254;DHT22;4060;49.186;9.226;2022-07-12T03:58:08;24.50;44.10
7254;DHT22;4060;49.186;9.226;2022-07-12T04:00:37;24.50;44.00
7254;DHT22;4060;49.186;9.226;2022-07-12T04:03:07;24.50;44.10
7254;DHT22;4060;49.186;9.226;2022-07-12T04:05:37;24.50;44.20
7254;DHT22;4060;49.186;9.226;2022-07-12T04:08:06;24.40;44.10
7254;DHT22;4060;49.186;9.226;2022-07-12T04:10:38;24.40;44.70
7254;DHT22;4060;49.186;9.226;2022-07-12T04:13:07;24.40;44.20
7254;DHT22;4060;49.186;9.226;2022-07-12T04:15:37;24.40;44.20
7254;DHT22;4060;49.186;9.226;2022-07-12T04:18:06;24.40;44.20
7254;DHT22;4060;49.186;9.226;2022-07-12T04:20:36;24.40;44.30
7254;DHT22;4060;49.186;9.226;2022-07-12T04:23:05;24.30;44.20
7254;DHT22;4060;49.186;9.226;2022-07-12T04:25:38;24.30;44.20
7254;DHT22;4060;49.186;9.226;2022-07-12T04:28:07;24.30;44.30
7254;DHT22;4060;49.186;9.226;2022-07-12T04:30:36;24.30;44.30
7254;DHT22;4060;49.186;9.226;2022-07-12T04:33:06;24.20;44.20
7254;DHT22;4060;49.186;9.226;2022-07-12T04:35:35;24.30;44.40
7254;DHT22;4060;49.186;9.226;2022-07-12T04:38:04;24.20;44.40
7254;DHT22;4060;49.186;9.226;2022-07-12T04:40:34;24.20;44.40
7254;DHT22;4060;49.186;9.226;2022-07-12T04:43:06;24.20;44.50
7254;DHT22;4060;49.186;9.226;2022-07-12T04:45:35;24.20;44.60
7254;DHT22;4060;49.186;9.226;2022-07-12T04:48:04;24.20;44.60
7254;DHT22;4060;49.186;9.226;2022-07-12T04:50:34;24.20;44.70
7254;DHT22;4060;49.186;9.226;2022-07-12T04:53:03;24.10;44.70
7254;DHT22;4060;49.186;9.226;2022-07-12T04:55:33;24.20;44.80
7254;DHT22;4060;49.186;9.226;2022-07-12T04:58:05;24.20;44.90
7254;DHT22;4060;49.186;9.226;2022-07-12T05:00:34;24.10;44.90
7254;DHT22;4060;49.186;9.226;2022-07-12T05:03:03;24.10;45.00
7254;DHT22;4060;49.186;9.226;2022-07-12T05:05:33;24.10;45.10
7254;DHT22;4060;49.186;9.226;2022-07-12T05:08:03;24.20;45.30
7254;DHT22;4060;49.186;9.226;2022-07-12T05:10:33;24.10;45.30
7254;DHT22;4060;49.186;9.226;2022-07-12T05:13:03;24.20;45.50
7254;DHT22;4060;49.186;9.226;2022-07-12T05:15:35;24.20;45.50
7254;DHT22;4060;49.186;9.226;2022-07-12T05:18:04;24.20;45.60
7254;DHT22;4060;49.186;9.226;2022-07-12T05:20:33;24.20;45.70
7254;DHT22;4060;49.186;9.226;2022-07-12T05:23:02;24.20;45.70
7254;DHT22;4060;49.186;9.226;2022-07-12T05:25:32;24.20;45.80
7254;DHT22;4060;49.186;9.226;2022-07-12T05:28:01;24.30;46.00
7254;DHT22;4060;49.186;9.226;2022-07-12T05:30:30;24.30;46.00
7254;DHT22;4060;49.186;9.226;2022-07-12T05:33:02;24.40;46.30
7254;DHT22;4060;49.186;9.226;2022-07-12T05:35:31;24.40;46.40
7254;DHT22;4060;49.186;9.226;2022-07-12T05:38:01;24.40;46.50
7254;DHT22;4060;49.186;9.226;2022-07-12T05:40:30;24.40;46.60
7254;DHT22;4060;49.186;9.226;2022-07-12T05:42:59;24.50;46.70
7254;DHT22;4060;49.186;9.226;2022-07-12T05:45:28;24.50;46.80
7254;DHT22;4060;49.186;9.226;2022-07-12T05:47:58;24.50;46.80
7254;DHT22;4060;49.186;9.226;2022-07-12T05:50:29;24.60;46.90
7254;DHT22;4060;49.186;9.226;2022-07-12T05:52:58;24.60;47.00
7254;DHT22;4060;49.186;9.226;2022-07-12T05:55:44;24.60;47.00
7254;DHT22;4060;49.186;9.226;2022-07-12T05:58:13;24.70;47.00
7254;DHT22;4060;49.186;9.226;2022-07-12T06:00:43;24.70;47.00
7254;DHT22;4060;49.186;9.226;2022-07-12T06:03:12;24.70;47.00
7254;DHT22;4060;49.186;9.226;2022-07-12T06:05:42;24.80;47.00
7254;DHT22;4060;49.186;9.226;2022-07-12T06:08:12;24.80;47.20
7254;DHT22;4060;49.186;9.226;2022-07-12T06:10:41;24.80;47.00
7254;DHT22;4060;49.186;9.226;2022-07-12T06:13:11;24.80;46.90
7254;DHT22;4060;49.186;9.226;2022-07-12T06:15:40;24.90;46.90
7254;DHT22;4060;49.186;9.226;2022-07-12T06:18:10;24.90;46.90
7254;DHT22;4060;49.186;9.226;2022-07-12T06:20:41;24.90;46.90
7254;DHT22;4060;49.186;9.226;2022-07-12T06:23:10;24.90;46.80
7254;DHT22;4060;49.186;9.226;2022-07-12T06:25:40;24.90;46.80
7254;DHT22;4060;49.186;9.226;2022-07-12T06:28:09;24.90;46.80
7254;DHT22;4060;49.186;9.226;2022-07-12T06:30:38;25.00;46.90
7254;DHT22;4060;49.186;9.226;2022-07-12T06:33:08;25.00;46.90
7254;DHT22;4060;49.186;9.226;2022-07-12T06:35:37;25.00;46.80
7254;DHT22;4060;49.186;9.226;2022-07-12T06:38:08;25.10;46.90
7254;DHT22;4060;49.186;9.226;2022-07-12T06:40:37;25.10;46.90
7254;DHT22;4060;49.186;9.226;2022-07-12T06:43:09;25.10;46.80
7254;DHT22;4060;49.186;9.226;2022-07-12T06:45:39;25.10;46.70
7254;DHT22;4060;49.186;9.226;2022-07-12T06:48:09;25.10;46.60
7254;DHT22;4060;49.186;9.226;2022-07-12T06:50:38;25.10;46.60
7254;DHT22;4060;49.186;9.226;2022-07-12T06:53:11;25.10;46.60
7254;DHT22;4060;49.186;9.226;2022-07-12T06:55:43;25.10;46.60
7254;DHT22;4060;49.186;9.226;2022-07-12T06:58:12;25.20;46.70
7254;DHT22;4060;49.186;9.226;2022-07-12T07:00:42;25.20;46.60
7254;DHT22;4060;49.186;9.226;2022-07-12T07:03:11;25.20;46.60
7254;DHT22;4060;49.186;9.226;2022-07-12T07:05:40;25.20;46.60
7254;DHT22;4060;49.186;9.226;2022-07-12T07:08:12;25.30;46.60
7254;DHT22;4060;49.186;9.226;2022-07-12T07:10:41;25.30;46.60
7254;DHT22;4060;49.186;9.226;2022-07-12T07:13:10;25.30;46.50
7254;DHT22;4060;49.186;9.226;2022-07-12T07:15:41;25.30;46.50
7254;DHT22;4060;49.186;9.226;2022-07-12T07:18:11;25.30;46.40
7254;DHT22;4060;49.186;9.226;2022-07-12T07:20:41;25.30;46.40
7254;DHT22;4060;49.186;9.226;2022-07-12T07:23:12;25.30;46.30
7254;DHT22;4060;49.186;9.226;2022-07-12T07:25:44;25.30;46.30
7254;DHT22;4060;49.186;9.226;2022-07-12T07:28:13;25.30;46.20
7254;DHT22;4060;49.186;9.226;2022-07-12T07:30:42;25.40;46.30
7254;DHT22;4060;49.186;9.226;2022-07-12T07:33:20;25.40;46.20
7254;DHT22;4060;49.186;9.226;2022-07-12T07:35:50;25.40;46.20
7254;DHT22;4060;49.186;9.226;2022-07-12T07:38:22;25.40;46.20
7254;DHT22;4060;49.186;9.226;2022-07-12T07:40:51;25.40;46.20
7254;DHT22;4060;49.186;9.226;2022-07-12T07:43:21;25.40;46.10
7254;DHT22;4060;49.186;9.226;2022-07-12T07:45:50;25.40;46.10
7254;DHT22;4060;49.186;9.226;2022-07-12T07:48:19;25.40;46.10
7254;DHT22;4060;49.186;9.226;2022-07-12T07:50:49;25.40;46.10
7254;DHT22;4060;49.186;9.226;2022-07-12T07:53:18;25.40;46.00
7254;DHT22;4060;49.186;9.226;2022-07-12T07:55:49;25.40;46.00
7254;DHT22;4060;49.186;9.226;2022-07-12T07:58:19;25.40;46.00
7254;DHT22;4060;49.186;9.226;2022-07-12T08:00:50;25.50;46.00
7254;DHT22;4060;49.186;9.226;2022-07-12T08:03:20;25.50;45.90
7254;DHT22;4060;49.186;9.226;2022-07-12T08:05:50;25.50;45.90
7254;DHT22;4060;49.186;9.226;2022-07-12T08:08:19;25.50;45.80
7254;DHT22;4060;49.186;9.226;2022-07-12T08:10:51;25.50;45.80
7254;DHT22;4060;49.186;9.226;2022-07-12T08:13:21;25.60;45.80
7254;DHT22;4060;49.186;9.226;2022-07-12T08:15:50;25.60;45.80
7254;DHT22;4060;49.186;9.226;2022-07-12T08:18:20;25.60;45.80
7254;DHT22;4060;49.186;9.226;2022-07-12T08:20:50;25.60;45.70
7254;DHT22;4060;49.186;9.226;2022-07-12T08:23:19;25.60;45.60
7254;DHT22;4060;49.186;9.226;2022-07-12T08:25:48;25.60;45.50
7254;DHT22;4060;49.186;9.226;2022-07-12T08:28:18;25.60;45.40
7254;DHT22;4060;49.186;9.226;2022-07-12T08:30:47;25.70;45.30
7254;DHT22;4060;49.186;9.226;2022-07-12T08:33:17;25.70;45.20
7254;DHT22;4060;49.186;9.226;2022-07-12T08:35:46;25.70;45.10
7254;DHT22;4060;49.186;9.226;2022-07-12T08:38:15;25.70;45.00
7254;DHT22;4060;49.186;9.226;2022-07-12T08:40:45;25.60;44.80
7254;DHT22;4060;49.186;9.226;2022-07-12T08:43:14;25.60;44.80
7254;DHT22;4060;49.186;9.226;2022-07-12T08:45:45;25.60;44.70
7254;DHT22;4060;49.186;9.226;2022-07-12T08:48:14;25.60;44.60
7254;DHT22;4060;49.186;9.226;2022-07-12T08:51:01;25.60;44.60
7254;DHT22;4060;49.186;9.226;2022-07-12T08:53:31;25.60;44.70
7254;DHT22;4060;49.186;9.226;2022-07-12T08:56:00;25.50;44.70
7254;DHT22;4060;49.186;9.226;2022-07-12T08:58:30;25.50;44.70
7254;DHT22;4060;49.186;9.226;2022-07-12T09:01:02;25.50;44.80
7254;DHT22;4060;49.186;9.226;2022-07-12T09:03:31;25.50;44.80
7254;DHT22;4060;49.186;9.226;2022-07-12T09:06:00;25.50;44.80
7254;DHT22;4060;49.186;9.226;2022-07-12T09:08:40;25.50;44.80
7254;DHT22;4060;49.186;9.226;2022-07-12T09:11:11;25.40;44.80
7254;DHT22;4060;49.186;9.226;2022-07-12T09:13:51;25.40;44.80
7254;DHT22;4060;49.186;9.226;2022-07-12T09:16:28;25.40;44.70
7254;DHT22;4060;49.186;9.226;2022-07-12T09:19:17;25.40;44.70
7254;DHT22;4060;49.186;9.226;2022-07-12T09:21:49;25.40;44.70
7254;DHT22;4060;49.186;9.226;2022-07-12T09:24:19;25.40;44.70
7254;DHT22;4060;49.186;9.226;2022-07-12T09:26:48;25.40;44.70
7254;DHT22;4060;49.186;9.226;2022-07-12T09:29:22;25.40;44.70
7254;DHT22;4060;49.186;9.226;2022-07-12T09:31:55;25.40;44.70
7254;DHT22;4060;49.186;9.226;2022-07-12T09:34:41;25.40;44.70
7254;DHT22;4060;49.186;9.226;2022-07-12T09:37:27;25.50;44.70
7254;DHT22;4060;49.186;9.226;2022-07-12T09:39:56;25.50;44.60
7254;DHT22;4060;49.186;9.226;2022-07-12T09:42:26;25.50;44.60
7254;DHT22;4060;49.186;9.226;2022-07-12T09:44:56;25.60;44.50
7254;DHT22;4060;49.186;9.226;2022-07-12T09:47:28;25.60;44.40
7254;DHT22;4060;49.186;9.226;2022-07-12T09:49:59;25.60;44.40
7254;DHT22;4060;49.186;9.226;2022-07-12T09:52:28;25.60;44.30
7254;DHT22;4060;49.186;9.226;2022-07-12T09:55:01;25.60;44.30
7254;DHT22;4060;49.186;9.226;2022-07-12T09:57:33;25.60;44.30
7254;DHT22;4060;49.186;9.226;2022-07-12T10:00:04;25.60;44.20
7254;DHT22;4060;49.186;9.226;2022-07-12T10:02:39;25.70;43.80
7254;DHT22;4060;49.186;9.226;2022-07-12T10:05:09;25.70;44.10
7254;DHT22;4060;49.186;9.226;2022-07-12T10:07:39;25.70;44.00
7254;DHT22;4060;49.186;9.226;2022-07-12T10:10:09;25.70;43.90
7254;DHT22;4060;49.186;9.226;2022-07-12T10:12:41;25.70;43.80
7254;DHT22;4060;49.186;9.226;2022-07-12T10:15:15;25.70;43.70
7254;DHT22;4060;49.186;9.226;2022-07-12T10:17:53;25.80;43.80
7254;DHT22;4060;49.186;9.226;2022-07-12T10:20:24;25.80;43.60
7254;DHT22;4060;49.186;9.226;2022-07-12T10:22:54;25.80;43.50
7254;DHT22;4060;49.186;9.226;2022-07-12T10:25:32;25.80;43.30
7254;DHT22;4060;49.186;9.226;2022-07-12T10:28:02;25.80;43.10
7254;DHT22;4060;49.186;9.226;2022-07-12T10:30:42;25.80;43.00
7254;DHT22;4060;49.186;9.226;2022-07-12T10:33:21;25.90;42.80
7254;DHT22;4060;49.186;9.226;2022-07-12T10:36:02;25.90;42.60
7254;DHT22;4060;49.186;9.226;2022-07-12T10:38:33;26.00;42.50
7254;DHT22;4060;49.186;9.226;2022-07-12T10:41:17;26.00;42.50
7254;DHT22;4060;49.186;9.226;2022-07-12T10:44:03;26.00;42.30
7254;DHT22;4060;49.186;9.226;2022-07-12T10:46:33;26.00;42.30
7254;DHT22;4060;49.186;9.226;2022-07-12T10:49:26;26.00;42.20
7254;DHT22;4060;49.186;9.226;2022-07-12T10:52:22;26.10;42.10
7254;DHT22;4060;49.186;9.226;2022-07-12T10:55:16;26.10;42.00
7254;DHT22;4060;49.186;9.226;2022-07-12T10:57:47;26.10;42.00
7254;DHT22;4060;49.186;9.226;2022-07-12T11:00:18;26.20;42.00
7254;DHT22;4060;49.186;9.226;2022-07-12T11:02:50;26.20;41.80
7254;DHT22;4060;49.186;9.226;2022-07-12T11:05:28;26.20;41.70
7254;DHT22;4060;49.186;9.226;2022-07-12T11:07:58;26.20;41.60
7254;DHT22;4060;49.186;9.226;2022-07-12T11:10:27;26.20;41.50
7254;DHT22;4060;49.186;9.226;2022-07-12T11:12:57;26.30;41.50
7254;DHT22;4060;49.186;9.226;2022-07-12T11:15:28;26.30;41.30
7254;DHT22;4060;49.186;9.226;2022-07-12T11:17:57;26.30;41.30
7254;DHT22;4060;49.186;9.226;2022-07-12T11:20:30;26.40;41.30
7254;DHT22;4060;49.186;9.226;2022-07-12T11:23:00;26.40;41.30
7254;DHT22;4060;49.186;9.226;2022-07-12T11:25:29;26.50;41.30
7254;DHT22;4060;49.186;9.226;2022-07-12T11:28:01;26.50;41.10
7254;DHT22;4060;49.186;9.226;2022-07-12T11:30:32;26.50;41.10
7254;DHT22;4060;49.186;9.226;2022-07-12T11:33:01;26.50;41.00
7254;DHT22;4060;49.186;9.226;2022-07-12T11:35:33;26.60;41.00
7254;DHT22;4060;49.186;9.226;2022-07-12T11:38:02;26.60;40.80
7254;DHT22;4060;49.186;9.226;2022-07-12T11:40:31;26.60;40.80
7254;DHT22;4060;49.186;9.226;2022-07-12T11:43:02;26.60;40.60
7254;DHT22;4060;49.186;9.226;2022-07-12T11:45:33;26.70;40.60
7254;DHT22;4060;49.186;9.226;2022-07-12T11:48:04;26.70;40.50
7254;DHT22;4060;49.186;9.226;2022-07-12T11:50:36;26.80;40.40
7254;DHT22;4060;49.186;9.226;2022-07-12T11:53:05;26.80;40.30
7254;DHT22;4060;49.186;9.226;2022-07-12T11:55:43;26.80;40.20
7254;DHT22;4060;49.186;9.226;2022-07-12T11:58:13;26.90;40.10
7254;DHT22;4060;49.186;9.226;2022-07-12T12:00:43;26.90;40.00
7254;DHT22;4060;49.186;9.226;2022-07-12T12:03:15;27.00;40.00
7254;DHT22;4060;49.186;9.226;2022-07-12T12:05:49;27.00;39.70
7254;DHT22;4060;49.186;9.226;2022-07-12T12:08:19;27.00;39.50
7254;DHT22;4060;49.186;9.226;2022-07-12T12:10:57;27.00;39.40
7254;DHT22;4060;49.186;9.226;2022-07-12T12:13:28;27.00;39.30
7254;DHT22;4060;49.186;9.226;2022-07-12T12:15:59;27.10;39.30
7254;DHT22;4060;49.186;9.226;2022-07-12T12:18:30;27.10;39.20
7254;DHT22;4060;49.186;9.226;2022-07-12T12:21:04;27.20;39.20
7254;DHT22;4060;49.186;9.226;2022-07-12T12:23:35;27.20;39.00
7254;DHT22;4060;49.186;9.226;2022-07-12T12:26:12;27.20;38.90
7254;DHT22;4060;49.186;9.226;2022-07-12T12:28:47;27.30;38.80
7254;DHT22;4060;49.186;9.226;2022-07-12T12:31:18;27.30;38.70
7254;DHT22;4060;49.186;9.226;2022-07-12T12:33:50;27.40;38.70
7254;DHT22;4060;49.186;9.226;2022-07-12T12:36:22;27.40;38.50
7254;DHT22;4060;49.186;9.226;2022-07-12T12:38:53;27.40;38.40
7254;DHT22;4060;49.186;9.226;2022-07-12T12:41:24;27.50;38.40
7254;DHT22;4060;49.186;9.226;2022-07-12T12:44:02;27.50;38.30
7254;DHT22;4060;49.186;9.226;2022-07-12T12:46:54;27.60;38.10
7254;DHT22;4060;49.186;9.226;2022-07-12T12:49:49;27.60;37.90
7254;DHT22;4060;49.186;9.226;2022-07-12T12:52:27;27.60;38.00
7254;DHT22;4060;49.186;9.226;2022-07-12T12:54:58;27.60;37.80
7254;DHT22;4060;49.186;9.226;2022-07-12T12:57:29;27.70;37.80
7254;DHT22;4060;49.186;9.226;2022-07-12T12:59:58;27.70;37.80
7254;DHT22;4060;49.186;9.226;2022-07-12T13:02:27;27.80;37.70
7254;DHT22;4060;49.186;9.226;2022-07-12T13:04:57;27.80;37.60
7254;DHT22;4060;49.186;9.226;2022-07-12T13:07:30;27.90;37.60
7254;DHT22;4060;49.186;9.226;2022-07-12T13:09:59;27.90;37.60
7254;DHT22;4060;49.186;9.226;2022-07-12T13:12:29;27.90;37.60
7254;DHT22;4060;49.186;9.226;2022-07-12T13:14:58;28.00;37.30
7254;DHT22;4060;49.186;9.226;2022-07-12T13:17:27;28.10;36.90
7254;DHT22;4060;49.186;9.226;2022-07-12T13:19:58;28.20;36.60
7254;DHT22;4060;49.186;9.226;2022-07-12T13:22:27;28.20;36.50
7254;DHT22;4060;49.186;9.226;2022-07-12T13:24:59;28.20;36.40
7254;DHT22;4060;49.186;9.226;2022-07-12T13:27:28;28.30;36.40
7254;DHT22;4060;49.186;9.226;2022-07-12T13:29:57;28.30;36.40
7254;DHT22;4060;49.186;9.226;2022-07-12T13:32:27;28.30;36.40
7254;DHT22;4060;49.186;9.226;2022-07-12T13:34:57;28.30;36.90
7254;DHT22;4060;49.186;9.226;2022-07-12T13:37:27;28.30;36.30
7254;DHT22;4060;49.186;9.226;2022-07-12T13:39:58;28.40;36.40
7254;DHT22;4060;49.186;9.226;2022-07-12T13:42:46;28.40;36.40
7254;DHT22;4060;49.186;9.226;2022-07-12T13:45:17;28.40;36.40
7254;DHT22;4060;49.186;9.226;2022-07-12T13:47:47;28.40;36.30
7254;DHT22;4060;49.186;9.226;2022-07-12T13:50:18;28.50;36.40
7254;DHT22;4060;49.186;9.226;2022-07-12T13:52:48;28.50;36.30
7254;DHT22;4060;49.186;9.226;2022-07-12T13:55:19;28.60;36.40
7254;DHT22;4060;49.186;9.226;2022-07-12T13:57:48;28.60;36.30
7254;DHT22;4060;49.186;9.226;2022-07-12T14:00:18;28.60;36.30
7254;DHT22;4060;49.186;9.226;2022-07-12T14:02:48;28.70;36.20
7254;DHT22;4060;49.186;9.226;2022-07-12T14:05:18;28.70;36.20
7254;DHT22;4060;49.186;9.226;2022-07-12T14:07:47;28.70;36.20
7254;DHT22;4060;49.186;9.226;2022-07-12T14:10:19;28.80;36.20
7254;DHT22;4060;49.186;9.226;2022-07-12T14:12:49;28.80;36.20
7254;DHT22;4060;49.186;9.226;2022-07-12T14:15:18;28.80;36.10
7254;DHT22;4060;49.186;9.226;2022-07-12T14:18:05;28.80;36.10
7254;DHT22;4060;49.186;9.226;2022-07-12T14:20:36;28.90;36.10
7254;DHT22;4060;49.186;9.226;2022-07-12T14:23:06;28.90;35.90
7254;DHT22;4060;49.186;9.226;2022-07-12T14:25:38;28.90;35.80
7254;DHT22;4060;49.186;9.226;2022-07-12T14:28:08;29.00;35.80
7254;DHT22;4060;49.186;9.226;2022-07-12T14:30:37;29.00;35.70
7254;DHT22;4060;49.186;9.226;2022-07-12T14:33:06;29.00;35.70
7254;DHT22;4060;49.186;9.226;2022-07-12T14:35:36;29.10;35.40
7254;DHT22;4060;49.186;9.226;2022-07-12T14:38:05;29.20;34.90
7254;DHT22;4060;49.186;9.226;2022-07-12T14:40:34;29.50;34.60
7254;DHT22;4060;49.186;9.226;2022-07-12T14:43:06;29.80;34.30
7254;DHT22;4060;49.186;9.226;2022-07-12T14:45:35;30.20;33.90
7254;DHT22;4060;49.186;9.226;2022-07-12T14:48:05;30.50;33.40
7254;DHT22;4060;49.186;9.226;2022-07-12T14:50:34;30.90;33.00
7254;DHT22;4060;49.186;9.226;2022-07-12T14:53:03;31.20;32.50
7254;DHT22;4060;49.186;9.226;2022-07-12T14:55:33;31.40;32.10
7254;DHT22;4060;49.186;9.226;2022-07-12T14:58:04;31.60;31.80
7254;DHT22;4060;49.186;9.226;2022-07-12T15:00:35;31.90;31.50
7254;DHT22;4060;49.186;9.226;2022-07-12T15:03:05;32.00;31.20
7254;DHT22;4060;49.186;9.226;2022-07-12T15:05:41;32.20;31.00
7254;DHT22;4060;49.186;9.226;2022-07-12T15:08:11;32.30;30.80
7254;DHT22;4060;49.186;9.226;2022-07-12T15:10:40;32.40;30.50
7254;DHT22;4060;49.186;9.226;2022-07-12T15:13:11;32.50;30.30
7254;DHT22;4060;49.186;9.226;2022-07-12T15:15:40;32.60;30.10
7254;DHT22;4060;49.186;9.226;2022-07-12T15:18:10;32.70;30.00
7254;DHT22;4060;49.186;9.226;2022-07-12T15:20:39;32.80;30.00
7254;DHT22;4060;49.186;9.226;2022-07-12T15:23:09;32.80;29.90
7254;DHT22;4060;49.186;9.226;2022-07-12T15:25:38;32.90;29.90
7254;DHT22;4060;49.186;9.226;2022-07-12T15:28:07;32.90;29.80
7254;DHT22;4060;49.186;9.226;2022-07-12T15:30:39;33.00;29.70
7254;DHT22;4060;49.186;9.226;2022-07-12T15:33:08;33.00;29.60
7254;DHT22;4060;49.186;9.226;2022-07-12T15:35:38;33.00;29.50
7254;DHT22;4060;49.186;9.226;2022-07-12T15:38:07;33.10;29.50
7254;DHT22;4060;49.186;9.226;2022-07-12T15:40:37;33.10;29.40
7254;DHT22;4060;49.186;9.226;2022-07-12T15:43:06;33.20;29.40
7254;DHT22;4060;49.186;9.226;2022-07-12T15:45:39;33.20;29.40
7254;DHT22;4060;49.186;9.226;2022-07-12T15:48:08;33.20;29.30
7254;DHT22;4060;49.186;9.226;2022-07-12T15:50:38;33.20;29.30
7254;DHT22;4060;49.186;9.226;2022-07-12T15:53:08;33.20;29.30
7254;DHT22;4060;49.186;9.226;2022-07-12T15:55:59;33.20;29.20
7254;DHT22;4060;49.186;9.226;2022-07-12T15:58:31;33.20;29.20
7254;DHT22;4060;49.186;9.226;2022-07-12T16:01:02;33.20;29.20
7254;DHT22;4060;49.186;9.226;2022-07-12T16:03:32;33.20;29.10
7254;DHT22;4060;49.186;9.226;2022-07-12T16:06:03;33.20;29.10
7254;DHT22;4060;49.186;9.226;2022-07-12T16:08:33;33.20;29.10
7254;DHT22;4060;49.186;9.226;2022-07-12T16:11:03;33.20;29.10
7254;DHT22;4060;49.186;9.226;2022-07-12T16:13:33;33.20;29.10
7254;DHT22;4060;49.186;9.226;2022-07-12T16:16:04;33.20;29.10
7254;DHT22;4060;49.186;9.226;2022-07-12T16:18:34;33.20;29.10
7254;DHT22;4060;49.186;9.226;2022-07-12T16:21:04;33.30;29.10
7254;DHT22;4060;49.186;9.226;2022-07-12T16:23:34;33.30;29.10
7254;DHT22;4060;49.186;9.226;2022-07-12T16:26:04;33.30;29.10
7254;DHT22;4060;49.186;9.226;2022-07-12T16:28:33;33.30;29.10